首页
METAR-TAF:

METAR-TAF

机场 :

Philip Billard Municipal Airport

托皮卡, 堪薩斯州, 美国

纬度: 39-04-21N, 经度: 095-37-33W, 海拔: 268米

当前天气观测

该预报发布于1小时和8分钟前的00:53 UTC
风速9节,风向南转南东
温度 31°C
湿度 59%
气压 1008 hPa
能見度: 16.1公里
天空无云

METAR: KTOP 170053Z AUTO 16009KT 10SM CLR 31/22 A2976 RMK AO2 SLP066 T03110222

时间: 21:01 (02:01 UTC)

预报

该预报发布于2小时和37分钟前的23:24 UTC
预报有效从17日的 00点(UTC)到 17日的 24点(UTC)
风速12节,风向
能見度: 10公里
天空无云
从 17日的 0500点(UTC)
风速9节,风向
能見度: 10公里
天空无云
从 17日的 1400点(UTC)
风速16节,风向,有时为27节阵风
能見度: 10公里
少量云层高于5000英尺

TAF: KTOP 162324Z 1700/1724 18012KT P6SM SKC FM170500 17009KT P6SM SKC WS012/19045KT FM171400 18016G27KT P6SM FEW050

超过4000个机场的气象观测和天气预报(METAR&TAF报告)。

可查询的气象台以黄色和红色小点在地图上表示。

将鼠标移到小点上方,可查看气象台名称。

然后点击查看天气观测和预报。

如需切换地图:点击带黑十字的绿色按钮放大地图;点击带横线的绿色按钮缩小地图;或者点击绿色箭头查看邻近地区的地图。


METAR-TAF: